Date,TemperatureHighF,TemperatureAvgF,TemperatureLowF,DewpointHighF,DewpointAvgF,DewpointLowF,HumidityHigh,HumidityAvg,HumidityLow,PressureMaxIn,PressureMinIn,WindSpeedMaxMPH,WindSpeedAvgMPH,GustSpeedMaxMPH,PrecipitationSumIn
2013-5-1,48,45,42,43,14,-100,90,56,50,30.29,30.02,0,-999,0,0.00
2013-5-2,49,42,35,47,7,-100,97,66,71,30.29,29.93,0,-999,0,0.00
2013-5-3,50,44,42,46,41,37,99,88,79,29.96,29.66,0,-999,0,0.00
2013-5-4,49,44,37,46,40,34,98,85,70,29.78,29.69,0,-999,0,0.00
2013-5-5,53,49,46,52,41,-100,100,89,84,29.96,29.77,0,-999,0,0.00
2013-5-6,53,47,45,51,46,45,100,97,88,30.01,29.90,0,-999,0,0.00
2013-5-7,61,53,46,48,23,-100,100,65,54,30.01,29.83,0,-999,0,0.00
2013-5-8,60,56,51,52,46,39,89,69,52,29.82,29.39,0,-999,0,0.00
2013-5-9,51,48,46,44,41,38,86,76,68,29.49,29.39,0,-999,0,0.00
2013-5-10,49,46,42,47,43,39,97,90,80,29.58,29.45,0,-999,0,0.00
2013-5-11,48,46,43,45,43,41,96,89,83,29.77,29.46,0,-999,0,0.00
2013-5-12,49,46,41,48,35,-100,99,82,69,29.79,29.53,0,-999,0,0.00
2013-5-13,49,45,42,42,23,-100,88,67,62,29.52,29.31,0,-999,0,0.00
2013-5-14,51,46,43,41,39,37,87,76,66,29.45,29.31,0,-999,0,0.00
2013-5-15,48,45,44,41,39,38,84,79,69,29.49,29.40,0,-999,0,0.00
2013-5-16,50,45,41,42,30,-100,86,79,59,29.71,29.41,0,-999,0,0.00
2013-5-17,55,48,39,44,38,-100,89,74,45,30.00,29.72,0,-999,0,0.00
2013-5-18,52,50,49,44,43,42,79,76,73,29.93,29.87,0,-999,0,0.00
2013-5-21,49,47,47,45,44,42,91,87,77,30.17,30.16,0,-999,0,0.00
2013-5-22,51,47,44,45,40,36,90,75,59,30.19,30.12,0,-999,0,0.00
2013-5-23,47,44,43,39,31,-100,84,71,63,30.15,30.00,0,-999,0,0.00
2013-5-24,56,48,43,43,38,34,83,67,46,30.22,30.02,0,-999,0,0.00
2013-5-25,58,48,40,48,41,35,97,76,46,30.23,30.05,0,-999,0,0.00
2013-5-26,60,49,44,48,44,42,97,84,53,30.13,29.59,0,-999,0,0.00
2013-5-27,55,49,46,46,44,41,94,83,61,29.55,29.27,0,-999,0,0.00
2013-5-28,58,52,48,46,44,42,90,76,56,29.78,29.38,0,-999,0,0.00
2013-5-29,69,57,48,46,43,39,80,60,40,29.99,29.80,0,-999,0,0.00
2013-5-30,55,51,47,49,46,44,90,81,69,30.12,29.99,0,-999,0,0.00
2013-5-31,53,50,47,49,45,37,97,84,56,30.24,30.11,0,-999,0,0.00